メインページ
METAR-TAF:

METAR-TAF

空港 :

セントキャサリンズ, オンタリオ州, カナダ

緯度: 43-12N, 経度: 079-10W, 海抜: 98m

現時点の気象観測

当レポートは4時間37分前の01:00(UTC)に作成
北/北東の風 5kt
気温 7°C
湿度 100%
気圧 1017 hPa
視程: 24.1km
高度1900ftの曇り

METAR: CYSN 040100Z 02005KT 15SM OVC019 07/07 A3004 RMK SC8 LAST STFD OBS/NEXT 04 1115 UTC SLP176

時間: 01:37 (05:37 UTC)

予報

当レポートは9時間59分前の19:38(UTC)に作成
予報は03日の 20時(UTC)から 04日の 01時(UTC)まで有効
北西の風 7kt
視程: 10km
高度2500ftの曇り
03日の 20時(UTC)から 03日の 22時(UTC)まで一時的に
高度2000ftの曇り
03日の 2200時(UTC)から
変向風 3kt
視程: 10km
高度1500ftの雲は散在している
高度2500ftの曇り
03日の 22時(UTC)から 04日の 01時(UTC)まで一時的に
視程: 10km
高度1500ftの千切れ雲あり
高度2500ftの曇り
小雨

TAF: CYSN 031938Z 0320/0401 31007KT P6SM OVC025 TEMPO 0320/0322 OVC020 FM032200 VRB03KT P6SM SCT015 OVC025 TEMPO 0322/0401 P6SM -RA BKN015 OVC025 RMK NXT FCST WILL BE ISSUED AT 041245Z

4,000以上の空港の気象観測と天気予報(METAR報とTAF報)

利用可能な観測所は地図上に黄色い丸と赤い丸で示す。

丸の上にカーソルを重ねると観測所名を参照できる。

次にクリックすると気象観測と天気予報を参照できる。

マップの切り替え:黒色「×」印の緑ボタンをクリックして拡大、「-」印の緑ボタンをクリックして縮小、緑色の三角印をクリックして隣りの地図に切り替え


METAR-TAF: